createdAt,value
2022-10-05T00:00:57.537Z,7.38
2022-10-05T00:03:33.569Z,6.15
2022-10-05T00:06:07.575Z,5.63
2022-10-05T00:08:35.614Z,6.55
2022-10-05T00:11:02.512Z,6.20
2022-10-05T00:13:37.580Z,6.40
2022-10-05T00:16:16.729Z,6.05
2022-10-05T00:18:48.666Z,6.30
2022-10-05T00:21:26.645Z,5.40
2022-10-05T00:24:03.766Z,4.90
2022-10-05T00:26:39.595Z,4.70
2022-10-05T00:29:23.125Z,5.10
2022-10-05T00:31:57.655Z,4.72
2022-10-05T00:34:24.734Z,5.03
2022-10-05T00:36:57.605Z,4.60
2022-10-05T00:39:24.418Z,4.45
2022-10-05T00:41:51.114Z,4.95
2022-10-05T00:44:31.594Z,4.20
2022-10-05T00:47:45.626Z,4.07
2022-10-05T00:50:48.721Z,4.05
2022-10-05T00:53:56.639Z,5.20
2022-10-05T00:56:54.161Z,5.38
2022-10-05T00:59:58.626Z,5.30
2022-10-05T01:02:36.552Z,4.72
2022-10-05T01:05:35.637Z,4.28
2022-10-05T01:08:43.679Z,4.00
2022-10-05T01:11:22.271Z,4.45
2022-10-05T01:14:16.655Z,5.10
2022-10-05T01:17:05.717Z,4.38
2022-10-05T01:20:27.679Z,3.50
2022-10-05T01:23:25.687Z,3.92
2022-10-05T01:26:34.677Z,4.10
2022-10-05T01:29:16.878Z,4.05
2022-10-05T01:32:17.686Z,4.85
2022-10-05T01:34:49.032Z,4.65
2022-10-05T01:37:27.710Z,4.80
2022-10-05T01:40:17.706Z,4.80
2022-10-05T01:43:19.882Z,5.20
2022-10-05T01:46:01.749Z,5.47
2022-10-05T01:48:46.989Z,6.03
2022-10-05T01:51:45.706Z,5.97
2022-10-05T01:54:33.845Z,6.45
2022-10-05T01:57:28.144Z,6.55
2022-10-05T02:00:16.732Z,7.22
2022-10-05T02:02:51.849Z,5.95
2022-10-05T02:05:30.879Z,5.15
2022-10-05T02:08:08.436Z,6.15
2022-10-05T02:10:52.714Z,6.75
2022-10-05T02:13:28.090Z,7.50
2022-10-05T02:16:13.818Z,8.20
2022-10-05T02:19:08.407Z,8.52
2022-10-05T02:21:42.793Z,6.72
2022-10-05T02:24:16.944Z,7.47
2022-10-05T02:26:51.781Z,8.20
2022-10-05T02:29:23.258Z,7.85
2022-10-05T02:32:18.796Z,7.03
2022-10-05T02:34:45.562Z,6.68
2022-10-05T02:37:53.918Z,7.88
2022-10-05T02:40:38.034Z,7.50
2022-10-05T02:43:27.868Z,7.25
2022-10-05T02:46:41.090Z,8.63
2022-10-05T02:49:21.797Z,8.20
2022-10-05T02:52:11.001Z,8.38
2022-10-05T02:55:06.807Z,7.03
2022-10-05T02:58:05.698Z,7.80
2022-10-05T03:00:47.928Z,8.52
2022-10-05T03:03:25.471Z,6.80
2022-10-05T03:06:34.823Z,6.60
2022-10-05T03:09:13.852Z,7.63
2022-10-05T03:11:49.829Z,8.77
2022-10-05T03:14:30.873Z,8.93
2022-10-05T03:17:16.998Z,8.02
2022-10-05T03:20:10.878Z,6.88
2022-10-05T03:22:37.663Z,7.00
2022-10-05T03:25:34.923Z,6.70
2022-10-05T03:28:24.134Z,6.65
2022-10-05T03:31:04.897Z,7.07
2022-10-05T03:33:54.971Z,8.18
2022-10-05T03:36:42.520Z,8.05
2022-10-05T03:39:31.870Z,7.20
2022-10-05T03:42:15.853Z,6.32
2022-10-05T03:45:20.903Z,6.00
2022-10-05T03:48:09.685Z,6.88
2022-10-05T03:51:01.880Z,6.63
2022-10-05T03:53:51.869Z,7.45
2022-10-05T03:56:50.129Z,6.90
2022-10-05T03:59:30.134Z,8.80
2022-10-05T04:02:18.976Z,7.30
2022-10-05T04:04:59.078Z,7.72
2022-10-05T04:07:53.255Z,6.50
2022-10-05T04:10:32.957Z,6.72
2022-10-05T04:13:25.767Z,6.75
2022-10-05T04:16:19.019Z,6.47
2022-10-05T04:19:14.929Z,8.13
2022-10-05T04:21:47.945Z,7.60
2022-10-05T04:24:42.927Z,6.38
2022-10-05T04:27:21.522Z,5.40
2022-10-05T04:30:18.945Z,5.00
2022-10-05T04:32:54.497Z,6.35
2022-10-05T04:36:21.994Z,5.47
2022-10-05T04:38:55.141Z,4.90
2022-10-05T04:42:07.110Z,4.93
2022-10-05T04:44:54.795Z,5.13
2022-10-05T04:47:55.998Z,4.30
2022-10-05T04:50:58.006Z,4.32
2022-10-05T04:54:04.958Z,4.07
2022-10-05T04:56:41.647Z,3.50
2022-10-05T04:59:23.997Z,3.10
2022-10-05T05:02:15.121Z,2.38
2022-10-05T05:05:06.985Z,2.58
2022-10-05T05:07:42.792Z,2.75
2022-10-05T05:10:40.021Z,2.70
2022-10-05T05:13:31.146Z,2.50
2022-10-05T05:15:57.986Z,1.88
2022-10-05T05:18:57.365Z,1.90
2022-10-05T05:22:14.871Z,2.00
2022-10-05T05:25:19.075Z,1.50
2022-10-05T05:27:56.365Z,1.60
2022-10-05T05:30:56.101Z,1.63
2022-10-05T05:33:31.991Z,1.50
2022-10-05T05:36:36.082Z,1.52
2022-10-05T05:39:40.292Z,1.30
2022-10-05T05:42:21.260Z,1.20
2022-10-05T05:45:00.056Z,1.27
2022-10-05T05:47:40.195Z,1.42
2022-10-05T05:50:41.153Z,1.50
2022-10-05T05:53:59.100Z,1.38
2022-10-05T05:56:42.818Z,1.65
2022-10-05T05:59:29.092Z,1.58
2022-10-05T06:02:06.962Z,1.75
2022-10-05T06:04:48.136Z,1.55
2022-10-05T06:07:30.598Z,1.80
2022-10-05T06:10:24.145Z,1.67
2022-10-05T06:12:53.388Z,1.60
2022-10-05T06:15:45.183Z,1.40
2022-10-05T06:18:22.296Z,1.57
2022-10-05T06:21:04.135Z,1.58
2022-10-05T06:23:58.200Z,1.50
2022-10-05T06:26:46.336Z,2.83
2022-10-05T06:29:24.987Z,1.50
2022-10-05T06:32:25.163Z,1.67
2022-10-05T06:35:16.186Z,1.65
2022-10-05T06:37:55.140Z,1.80
2022-10-05T06:40:38.642Z,1.98
2022-10-05T06:43:55.148Z,1.77
2022-10-05T06:46:50.191Z,1.85
2022-10-05T06:49:32.154Z,1.70
2022-10-05T06:52:34.175Z,1.60
2022-10-05T06:55:26.309Z,1.45
2022-10-05T06:58:19.231Z,2.17
2022-10-05T07:01:20.692Z,1.75
2022-10-05T07:04:39.198Z,1.83
2022-10-05T07:07:18.092Z,1.60
2022-10-05T07:10:02.192Z,2.38
2022-10-05T07:12:54.206Z,2.03
2022-10-05T07:15:32.835Z,3.10
2022-10-05T07:18:21.222Z,2.28
2022-10-05T07:21:46.452Z,2.83
2022-10-05T07:24:27.297Z,2.35
2022-10-05T07:27:26.223Z,2.97
2022-10-05T07:30:19.249Z,2.67
2022-10-05T07:33:20.257Z,3.08
2022-10-05T07:36:12.241Z,2.53
2022-10-05T07:39:08.280Z,2.35
2022-10-05T07:41:37.882Z,3.00
2022-10-05T07:44:54.265Z,3.53
2022-10-05T07:47:40.238Z,3.45
2022-10-05T07:50:22.720Z,3.15
2022-10-05T07:56:01.245Z,3.38
2022-10-05T07:58:37.970Z,3.05
2022-10-05T08:01:14.319Z,3.13
2022-10-05T08:03:49.458Z,3.10
2022-10-05T08:06:33.335Z,3.00
2022-10-05T08:09:26.205Z,3.58
2022-10-05T08:12:26.282Z,2.80
2022-10-05T08:15:16.489Z,3.33
2022-10-05T08:18:02.353Z,3.47
2022-10-05T08:20:58.348Z,2.88
2022-10-05T08:23:57.312Z,3.40
2022-10-05T08:26:52.352Z,3.30
2022-10-05T08:29:48.757Z,4.07
2022-10-05T08:32:43.295Z,3.45
2022-10-05T08:35:45.308Z,3.50
2022-10-05T08:38:23.339Z,3.40
2022-10-05T08:41:27.172Z,3.30
2022-10-05T08:44:32.341Z,3.30
2022-10-05T08:47:49.338Z,2.78
2022-10-05T08:50:40.903Z,2.88
2022-10-05T08:53:25.341Z,18.83
2022-10-05T08:55:58.041Z,6.22
2022-10-05T08:58:57.402Z,5.30
2022-10-05T09:01:30.398Z,4.53
2022-10-05T09:04:12.422Z,3.25
2022-10-05T09:10:09.459Z,2.72
2022-10-05T09:13:12.484Z,2.95
2022-10-05T09:16:17.517Z,2.58
2022-10-05T09:19:14.453Z,2.03
2022-10-05T09:22:00.155Z,2.00
2022-10-05T09:24:54.439Z,2.40
2022-10-05T09:27:29.087Z,2.72
2022-10-05T09:30:31.465Z,2.60
2022-10-05T09:33:16.995Z,2.10
2022-10-05T09:36:27.462Z,2.22
2022-10-05T09:39:15.448Z,1.90
2022-10-05T09:42:07.501Z,1.70
2022-10-05T09:44:56.378Z,1.90
2022-10-05T09:48:02.496Z,2.30
2022-10-05T09:50:38.385Z,2.20
2022-10-05T09:53:29.478Z,2.00
2022-10-05T09:59:24.958Z,2.38
2022-10-05T10:02:19.611Z,2.55
2022-10-05T10:05:12.473Z,2.60
2022-10-05T10:08:23.490Z,2.97
2022-10-05T10:11:09.482Z,2.60
2022-10-05T10:14:02.548Z,2.85
2022-10-05T10:16:29.868Z,3.08
2022-10-05T10:19:06.565Z,2.70
2022-10-05T10:21:54.551Z,2.63
2022-10-05T10:24:41.567Z,3.00
2022-10-05T10:27:52.550Z,3.30
2022-10-05T10:30:43.532Z,3.28
2022-10-05T10:33:50.602Z,4.03
2022-10-05T10:36:39.228Z,3.58
2022-10-05T10:39:37.543Z,3.20
2022-10-05T10:42:14.827Z,3.42
2022-10-05T10:44:59.550Z,2.85
2022-10-05T10:47:40.003Z,2.80
2022-10-05T10:50:36.510Z,3.00
2022-10-05T10:53:12.545Z,2.50
2022-10-05T10:56:19.550Z,2.83
2022-10-05T10:59:31.707Z,2.30
2022-10-05T11:02:17.533Z,2.33
2022-10-05T11:05:09.568Z,2.60
2022-10-05T11:07:51.613Z,2.70
2022-10-05T11:11:06.561Z,2.88
2022-10-05T11:14:02.605Z,2.78
2022-10-05T11:16:50.288Z,3.22
2022-10-05T11:20:03.167Z,2.95
2022-10-05T11:23:06.662Z,3.30
2022-10-05T11:25:54.716Z,3.20
2022-10-05T11:28:50.101Z,2.70
2022-10-05T11:32:00.683Z,3.03
2022-10-05T11:34:52.632Z,3.10
2022-10-05T11:38:01.590Z,2.95
2022-10-05T11:41:03.166Z,2.35
2022-10-05T11:43:54.651Z,2.58
2022-10-05T11:46:47.785Z,2.88
2022-10-05T11:49:36.153Z,2.13
2022-10-05T11:52:27.787Z,2.90
2022-10-05T11:55:16.394Z,3.17
2022-10-05T11:58:04.684Z,2.90
2022-10-05T12:00:47.702Z,2.40
2022-10-05T12:03:53.241Z,2.90
2022-10-05T12:06:54.668Z,3.00
2022-10-05T12:09:36.682Z,2.53
2022-10-05T12:12:10.612Z,2.65
2022-10-05T12:14:44.649Z,2.63
2022-10-05T12:17:21.705Z,3.38
2022-10-05T12:20:08.676Z,3.20
2022-10-05T12:22:40.587Z,3.17
2022-10-05T12:25:26.753Z,2.85
2022-10-05T12:28:00.561Z,3.28
2022-10-05T12:31:06.786Z,3.30
2022-10-05T12:33:39.701Z,3.10
2022-10-05T12:36:15.201Z,2.90
2022-10-05T12:39:02.724Z,3.25
2022-10-05T12:41:51.135Z,3.20
2022-10-05T12:44:29.718Z,3.50
2022-10-05T12:47:02.538Z,3.40
2022-10-05T12:49:44.741Z,3.40
2022-10-05T12:52:28.612Z,3.60
2022-10-05T12:55:13.310Z,3.45
2022-10-05T12:58:11.788Z,3.40
2022-10-05T13:00:48.143Z,3.53
2022-10-05T13:03:36.796Z,3.63
2022-10-05T13:06:04.193Z,3.47
2022-10-05T13:09:06.794Z,4.18
2022-10-05T13:11:52.557Z,3.50
2022-10-05T13:14:59.764Z,3.22
2022-10-05T13:17:46.823Z,3.67
2022-10-05T13:20:35.245Z,3.28
2022-10-05T13:23:37.831Z,3.47
2022-10-05T13:26:14.556Z,3.78
2022-10-05T13:29:04.048Z,3.33
2022-10-05T13:31:53.867Z,4.03
2022-10-05T13:34:24.996Z,3.47
2022-10-05T13:37:09.809Z,3.55
2022-10-05T13:39:52.975Z,3.55
2022-10-05T13:42:54.829Z,3.38
2022-10-05T13:45:52.790Z,3.60
2022-10-05T13:48:29.028Z,3.63
2022-10-05T13:51:31.897Z,3.60
2022-10-05T13:57:28.879Z,3.15
2022-10-05T14:00:04.946Z,3.17
2022-10-05T14:02:45.874Z,3.25
2022-10-05T14:05:19.267Z,3.55
2022-10-05T14:08:10.877Z,2.67
2022-10-05T14:10:40.172Z,3.30
2022-10-05T14:13:40.073Z,2.70
2022-10-05T14:16:27.921Z,3.50
2022-10-05T14:19:11.876Z,3.35
2022-10-05T14:21:59.930Z,3.17
2022-10-05T14:24:45.893Z,3.25
2022-10-05T14:27:41.924Z,2.90
2022-10-05T14:30:08.641Z,2.97
2022-10-05T14:33:01.885Z,2.92
2022-10-05T14:35:37.912Z,3.00
2022-10-05T14:38:35.899Z,2.90
2022-10-05T14:41:05.625Z,2.95
2022-10-05T14:43:41.016Z,2.97
2022-10-05T14:46:34.158Z,2.65
2022-10-05T14:49:29.972Z,3.20
2022-10-05T14:51:58.511Z,3.22
2022-10-05T14:54:52.978Z,2.90
2022-10-05T14:57:33.468Z,3.10
2022-10-05T15:00:22.961Z,3.35
2022-10-05T15:03:08.145Z,2.70
2022-10-05T15:05:56.991Z,2.70
2022-10-05T15:08:47.948Z,2.45
2022-10-05T15:11:52.980Z,2.55
2022-10-05T15:14:26.338Z,3.00
2022-10-05T15:17:04.028Z,2.50
2022-10-05T15:19:40.559Z,2.50
2022-10-05T15:22:29.132Z,2.45
2022-10-05T15:25:28.986Z,2.40
2022-10-05T15:28:30.370Z,2.30
2022-10-05T15:31:11.021Z,2.40
2022-10-05T15:33:46.305Z,2.22
2022-10-05T15:36:28.993Z,2.05
2022-10-05T15:39:34.757Z,2.55
2022-10-05T15:42:23.011Z,2.08
2022-10-05T15:45:02.030Z,2.00
2022-10-05T15:47:42.081Z,2.50
2022-10-05T15:50:27.316Z,2.10
2022-10-05T15:53:19.080Z,2.05
2022-10-05T15:56:05.019Z,2.00
2022-10-05T15:58:34.639Z,2.20
2022-10-05T16:01:11.120Z,2.17
2022-10-05T16:04:19.026Z,2.10
2022-10-05T16:07:17.585Z,1.95
2022-10-05T16:10:10.058Z,1.70
2022-10-05T16:12:39.748Z,2.15
2022-10-05T16:15:23.087Z,1.90
2022-10-05T16:18:09.117Z,1.92
2022-10-05T16:21:04.104Z,2.08
2022-10-05T16:24:05.067Z,2.00
2022-10-05T16:26:56.057Z,2.10
2022-10-05T16:29:50.250Z,2.00
2022-10-05T16:32:28.101Z,2.28
2022-10-05T16:35:08.672Z,1.80
2022-10-05T16:38:03.101Z,2.00
2022-10-05T16:40:52.331Z,1.90
2022-10-05T16:43:53.053Z,2.13
2022-10-05T16:46:43.139Z,2.40
2022-10-05T16:49:44.071Z,2.00
2022-10-05T16:52:15.767Z,2.28
2022-10-05T16:54:55.174Z,2.45
2022-10-05T16:57:29.888Z,2.35
2022-10-05T17:00:28.098Z,2.67
2022-10-05T17:03:21.161Z,2.28
2022-10-05T17:05:59.061Z,2.22
2022-10-05T17:08:37.156Z,2.42
2022-10-05T17:11:31.124Z,2.28
2022-10-05T17:14:17.112Z,2.28
2022-10-05T17:16:46.933Z,2.70
2022-10-05T17:19:35.126Z,2.30
2022-10-05T17:22:18.296Z,2.40
2022-10-05T17:25:21.168Z,2.38
2022-10-05T17:28:12.856Z,2.20
2022-10-05T17:31:21.253Z,2.45
2022-10-05T17:34:00.192Z,2.20
2022-10-05T17:36:55.244Z,2.38
2022-10-05T17:39:41.877Z,2.50
2022-10-05T17:42:52.212Z,2.80
2022-10-05T17:45:26.217Z,2.50
2022-10-05T17:48:10.251Z,2.55
2022-10-05T17:51:05.208Z,2.63
2022-10-05T17:54:01.779Z,2.63
2022-10-05T17:56:37.268Z,2.42
2022-10-05T17:59:13.236Z,2.50
2022-10-05T18:01:48.295Z,2.00
2022-10-05T18:04:40.244Z,2.40
2022-10-05T18:07:29.242Z,2.72
2022-10-05T18:10:22.381Z,2.35
2022-10-05T18:13:11.227Z,2.85
2022-10-05T18:15:45.155Z,2.40
2022-10-05T18:18:49.258Z,2.60
2022-10-05T18:21:20.410Z,2.40
2022-10-05T18:24:01.257Z,2.28
2022-10-05T18:26:51.976Z,2.60
2022-10-05T18:29:56.290Z,2.83
2022-10-05T18:32:34.767Z,2.58
2022-10-05T18:35:21.295Z,2.80
2022-10-05T18:37:57.567Z,2.50
2022-10-05T18:40:41.400Z,2.55
2022-10-05T18:43:33.924Z,2.75
2022-10-05T18:46:32.412Z,3.35
2022-10-05T18:49:24.306Z,3.03
2022-10-05T18:51:55.816Z,2.83
2022-10-05T18:54:50.396Z,3.28
2022-10-05T18:57:32.295Z,3.05
2022-10-05T19:00:20.316Z,3.55
2022-10-05T19:03:03.353Z,3.20
2022-10-05T19:05:57.431Z,3.65
2022-10-05T19:08:49.429Z,3.33
2022-10-05T19:11:27.887Z,3.33
2022-10-05T19:14:02.404Z,3.03
2022-10-05T19:16:51.376Z,3.75
2022-10-05T19:19:46.604Z,3.22
2022-10-05T19:22:26.368Z,2.97
2022-10-05T19:25:24.216Z,3.35
2022-10-05T19:28:10.397Z,3.63
2022-10-05T19:31:09.718Z,4.32
2022-10-05T19:34:01.429Z,2.70
2022-10-05T19:36:48.984Z,2.03
2022-10-05T19:39:37.367Z,1.30
2022-10-05T19:42:25.346Z,1.23
2022-10-05T19:45:27.371Z,0.80
2022-10-05T19:48:14.848Z,0.80
2022-10-05T19:51:00.429Z,0.80
2022-10-05T19:53:31.199Z,0.80
2022-10-05T19:56:26.389Z,0.63
2022-10-05T19:58:56.494Z,0.70
2022-10-05T20:01:33.465Z,0.80
2022-10-05T20:04:00.620Z,0.80
2022-10-05T20:06:36.409Z,0.70
2022-10-05T20:09:33.417Z,0.95
2022-10-05T20:12:07.422Z,1.10
2022-10-05T20:15:00.420Z,0.93
2022-10-05T20:17:53.415Z,0.80
2022-10-05T20:20:22.733Z,0.95
2022-10-05T20:22:56.468Z,1.05
2022-10-05T20:25:29.466Z,1.08
2022-10-05T20:28:08.555Z,0.80
2022-10-05T20:30:35.375Z,1.10
2022-10-05T20:33:11.543Z,1.00
2022-10-05T20:35:44.440Z,1.00
2022-10-05T20:38:18.492Z,0.80
2022-10-05T20:40:46.682Z,0.93
2022-10-05T20:43:13.855Z,1.27
2022-10-05T20:45:49.467Z,1.30
2022-10-05T20:48:23.563Z,1.23
2022-10-05T20:50:56.533Z,1.48
2022-10-05T20:53:23.688Z,0.70
2022-10-05T20:55:57.502Z,0.73
2022-10-05T20:58:24.627Z,0.50
2022-10-05T21:01:16.574Z,0.35
2022-10-05T21:03:43.446Z,0.53
2022-10-05T21:06:17.518Z,0.77
2022-10-05T21:08:46.754Z,0.50
2022-10-05T21:11:14.479Z,0.60
2022-10-05T21:13:53.498Z,0.88
2022-10-05T21:16:20.781Z,0.30
2022-10-05T21:18:55.556Z,0.75
2022-10-05T21:21:29.486Z,0.50
2022-10-05T21:23:56.832Z,0.50
2022-10-05T21:26:30.548Z,0.60
2022-10-05T21:29:07.774Z,0.90
2022-10-05T21:31:37.551Z,0.70
2022-10-05T21:34:11.529Z,0.80
2022-10-05T21:36:44.495Z,0.70
2022-10-05T21:39:17.536Z,0.43
2022-10-05T21:42:12.508Z,0.35
2022-10-05T21:44:45.549Z,0.47
2022-10-05T21:47:19.583Z,0.40
2022-10-05T21:49:46.503Z,0.60
2022-10-05T21:52:13.475Z,0.40
2022-10-05T21:54:46.582Z,0.60
2022-10-05T21:57:21.565Z,0.30
2022-10-05T21:59:55.580Z,0.73
2022-10-05T22:02:28.577Z,0.65
2022-10-05T22:04:55.411Z,0.60
2022-10-05T22:07:28.565Z,0.77
2022-10-05T22:10:01.595Z,0.70
2022-10-05T22:12:28.779Z,0.50
2022-10-05T22:15:02.608Z,0.60
2022-10-05T22:17:31.883Z,0.90
2022-10-05T22:20:06.593Z,0.90
2022-10-05T22:22:33.658Z,1.33
2022-10-05T22:25:00.439Z,0.85
2022-10-05T22:27:35.612Z,1.55
2022-10-05T22:30:03.693Z,1.35
2022-10-05T22:32:36.667Z,1.20
2022-10-05T22:35:11.719Z,1.83
2022-10-05T22:37:45.630Z,1.75
2022-10-05T22:40:18.655Z,3.00
2022-10-05T22:42:51.681Z,1.75
2022-10-05T22:45:18.753Z,1.90
2022-10-05T22:47:45.630Z,1.33
2022-10-05T22:50:18.675Z,1.50
2022-10-05T22:52:48.607Z,1.60
2022-10-05T22:55:21.691Z,1.85
2022-10-05T22:57:49.284Z,1.70
2022-10-05T23:00:35.234Z,1.30
2022-10-05T23:03:15.710Z,1.40
2022-10-05T23:05:49.681Z,2.00
2022-10-05T23:08:16.889Z,2.10
2022-10-05T23:10:49.758Z,1.70
2022-10-05T23:13:16.678Z,2.10
2022-10-05T23:15:51.694Z,2.75
2022-10-05T23:18:18.453Z,2.05
2022-10-05T23:20:51.772Z,2.05
2022-10-05T23:23:19.143Z,2.17
2022-10-05T23:25:52.692Z,2.30
2022-10-05T23:28:19.607Z,1.95
2022-10-05T23:30:52.815Z,1.35
2022-10-05T23:33:19.687Z,1.63
2022-10-05T23:35:52.713Z,2.03
2022-10-05T23:38:19.522Z,1.67
2022-10-05T23:40:53.770Z,1.40
2022-10-05T23:43:20.695Z,1.58
2022-10-05T23:45:47.682Z,1.65
2022-10-05T23:48:21.751Z,1.83
2022-10-05T23:50:55.768Z,1.95
2022-10-05T23:53:29.724Z,1.48
2022-10-05T23:55:56.594Z,1.77
2022-10-05T23:58:30.986Z,1.50
